createdAt,value
2022-10-17T00:00:36.803Z,0
2022-10-17T00:01:36.880Z,0
2022-10-17T00:02:36.285Z,0
2022-10-17T00:03:37.106Z,0
2022-10-17T00:04:36.613Z,0
2022-10-17T00:05:36.532Z,0
2022-10-17T00:06:36.251Z,0
2022-10-17T00:07:37.457Z,0
2022-10-17T00:08:36.486Z,0
2022-10-17T00:09:36.225Z,0
2022-10-17T00:10:37.037Z,0
2022-10-17T00:11:36.470Z,0
2022-10-17T00:12:36.465Z,0
2022-10-17T00:13:37.844Z,0
2022-10-17T00:14:36.441Z,0
2022-10-17T00:15:36.700Z,0
2022-10-17T00:16:36.929Z,0
2022-10-17T00:17:37.207Z,0
2022-10-17T00:18:36.157Z,0
2022-10-17T00:19:36.988Z,0
2022-10-17T00:20:36.417Z,0
2022-10-17T00:21:36.414Z,0
2022-10-17T00:23:36.879Z,0
2022-10-17T00:24:36.635Z,0
2022-10-17T00:25:36.349Z,0
2022-10-17T00:26:37.363Z,0
2022-10-17T00:27:37.324Z,0
2022-10-17T00:28:36.702Z,0
2022-10-17T00:29:36.587Z,0
2022-10-17T00:30:36.572Z,0
2022-10-17T00:31:36.853Z,0
2022-10-17T00:32:37.272Z,0
2022-10-17T00:33:36.539Z,0
2022-10-17T00:34:36.278Z,0
2022-10-17T00:35:36.603Z,0
2022-10-17T00:36:36.546Z,0
2022-10-17T00:37:36.539Z,0
2022-10-17T00:38:36.523Z,0
2022-10-17T00:39:36.246Z,0
2022-10-17T00:40:35.713Z,0
2022-10-17T00:41:36.223Z,0
2022-10-17T00:42:36.818Z,0
2022-10-17T00:43:36.457Z,0
2022-10-17T00:44:36.195Z,0
2022-10-17T00:45:36.455Z,0
2022-10-17T00:46:36.442Z,0
2022-10-17T00:47:36.680Z,0
2022-10-17T00:48:35.916Z,0
2022-10-17T00:49:36.425Z,0
2022-10-17T00:50:35.634Z,0
2022-10-17T00:51:36.478Z,0
2022-10-17T00:52:38.000Z,0
2022-10-17T00:53:36.439Z,0
2022-10-17T00:54:35.905Z,0
2022-10-17T00:55:36.121Z,0
2022-10-17T00:56:36.358Z,0
2022-10-17T00:57:36.180Z,0
2022-10-17T00:58:36.603Z,0
2022-10-17T00:59:36.083Z,0
2022-10-17T01:00:36.060Z,0
2022-10-17T01:01:36.170Z,0
2022-10-17T01:02:37.224Z,0
2022-10-17T01:03:35.789Z,0
2022-10-17T01:04:36.021Z,0
2022-10-17T01:05:35.791Z,0
2022-10-17T01:06:36.020Z,0
2022-10-17T01:07:42.302Z,0
2022-10-17T01:08:36.538Z,0
2022-10-17T01:09:35.752Z,0
2022-10-17T01:10:36.028Z,0
2022-10-17T01:11:35.984Z,0
2022-10-17T01:12:36.819Z,0
2022-10-17T01:13:35.961Z,0
2022-10-17T01:14:35.954Z,0
2022-10-17T01:15:36.206Z,0
2022-10-17T01:16:35.424Z,0
2022-10-17T01:17:36.191Z,0
2022-10-17T01:18:35.926Z,0
2022-10-17T01:19:35.940Z,0
2022-10-17T01:20:35.396Z,0
2022-10-17T01:21:35.882Z,0
2022-10-17T01:22:37.071Z,0
2022-10-17T01:23:35.982Z,0
2022-10-17T01:24:35.904Z,0
2022-10-17T01:25:36.129Z,0
2022-10-17T01:26:35.862Z,0
2022-10-17T01:27:36.101Z,0
2022-10-17T01:28:37.042Z,0
2022-10-17T01:29:35.825Z,0
2022-10-17T01:30:35.831Z,0
2022-10-17T01:31:36.009Z,0
2022-10-17T01:32:37.045Z,0
2022-10-17T01:34:07.869Z,0
2022-10-17T01:34:35.531Z,0
2022-10-17T01:35:35.788Z,0
2022-10-17T01:36:35.523Z,0
2022-10-17T01:37:35.504Z,0
2022-10-17T01:38:36.291Z,0
2022-10-17T01:39:47.973Z,0
2022-10-17T01:40:35.746Z,0
2022-10-17T01:41:36.000Z,0
2022-10-17T01:42:37.372Z,0
2022-10-17T01:43:35.990Z,0
2022-10-17T01:44:35.699Z,0
2022-10-17T01:45:35.700Z,0
2022-10-17T01:46:35.686Z,0
2022-10-17T01:47:36.526Z,0
2022-10-17T01:48:35.958Z,0
2022-10-17T01:49:36.183Z,0
2022-10-17T01:50:35.665Z,0
2022-10-17T01:51:35.390Z,0
2022-10-17T01:52:35.660Z,0
2022-10-17T01:53:36.149Z,0
2022-10-17T01:54:35.615Z,0
2022-10-17T01:55:35.709Z,0
2022-10-17T01:56:35.387Z,0
2022-10-17T01:57:36.839Z,0
2022-10-17T01:58:35.859Z,0
2022-10-17T01:59:35.076Z,0
2022-10-17T02:00:35.831Z,0
2022-10-17T02:01:35.641Z,0
2022-10-17T02:02:35.548Z,0
2022-10-17T02:03:35.290Z,0
2022-10-17T02:04:35.800Z,0
2022-10-17T02:05:35.271Z,0
2022-10-17T02:06:36.029Z,0
2022-10-17T02:07:36.846Z,0
2022-10-17T02:08:35.789Z,0
2022-10-17T02:09:35.238Z,0
2022-10-17T02:10:35.223Z,0
2022-10-17T02:11:36.068Z,0
2022-10-17T02:12:35.515Z,0
2022-10-17T02:13:35.751Z,0
2022-10-17T02:14:35.202Z,0
2022-10-17T02:15:35.696Z,0
2022-10-17T02:16:35.182Z,0
2022-10-17T02:17:36.665Z,0
2022-10-17T02:18:35.410Z,0
2022-10-17T02:19:35.663Z,0
2022-10-17T02:20:35.146Z,0
2022-10-17T02:21:35.913Z,0
2022-10-17T02:22:35.890Z,0
2022-10-17T02:23:36.074Z,0
2022-10-17T02:24:35.118Z,0
2022-10-17T02:25:35.352Z,0
2022-10-17T02:26:35.088Z,0
2022-10-17T02:27:37.167Z,0
2022-10-17T02:28:35.966Z,0
2022-10-17T02:29:35.607Z,0
2022-10-17T02:30:35.309Z,0
2022-10-17T02:31:35.582Z,0
2022-10-17T02:32:35.060Z,0
2022-10-17T02:33:35.287Z,0
2022-10-17T02:34:35.531Z,0
2022-10-17T02:35:35.277Z,0
2022-10-17T02:36:35.273Z,0
2022-10-17T02:37:36.627Z,0
2022-10-17T02:38:34.740Z,0
2022-10-17T02:39:34.974Z,0
2022-10-17T02:40:35.494Z,0
2022-10-17T02:41:36.651Z,0
2022-10-17T02:42:36.945Z,0
2022-10-17T02:43:35.536Z,0
2022-10-17T02:44:35.486Z,0
2022-10-17T02:45:35.477Z,0
2022-10-17T02:46:35.435Z,0
2022-10-17T02:47:35.417Z,0
2022-10-17T02:48:35.421Z,0
2022-10-17T02:49:35.412Z,0
2022-10-17T02:50:35.005Z,0
2022-10-17T02:51:35.131Z,0
2022-10-17T02:52:36.494Z,0
2022-10-17T02:53:35.385Z,0
2022-10-17T02:54:35.112Z,0
2022-10-17T02:55:35.090Z,0
2022-10-17T02:56:35.349Z,0
2022-10-17T02:57:34.831Z,0
2022-10-17T02:58:34.830Z,0
2022-10-17T02:59:35.651Z,0
2022-10-17T03:00:35.330Z,0
2022-10-17T03:01:35.841Z,0
2022-10-17T03:02:36.035Z,0
2022-10-17T03:03:35.026Z,0
2022-10-17T03:04:35.269Z,0
2022-10-17T03:05:35.028Z,0
2022-10-17T03:06:35.019Z,0
2022-10-17T03:07:34.985Z,0
2022-10-17T03:08:35.652Z,0
2022-10-17T03:09:34.727Z,0
2022-10-17T03:10:34.970Z,0
2022-10-17T03:11:34.964Z,0
2022-10-17T03:12:35.477Z,0
2022-10-17T03:13:39.684Z,0
2022-10-17T03:14:34.939Z,0
2022-10-17T03:15:35.259Z,0
2022-10-17T03:16:35.190Z,0
2022-10-17T03:17:35.333Z,0
2022-10-17T03:18:35.170Z,0
2022-10-17T03:19:34.886Z,0
2022-10-17T03:20:35.136Z,0
2022-10-17T03:21:34.873Z,0
2022-10-17T03:22:36.257Z,0
2022-10-17T03:23:35.111Z,0
2022-10-17T03:24:35.368Z,0
2022-10-17T03:25:34.845Z,0
2022-10-17T03:26:34.749Z,0
2022-10-17T03:27:36.068Z,0
2022-10-17T03:28:35.134Z,0
2022-10-17T03:29:34.810Z,0
2022-10-17T03:30:35.075Z,0
2022-10-17T03:31:35.377Z,0
2022-10-17T03:32:35.063Z,0
2022-10-17T03:49:43.734Z,0
2022-10-17T03:50:43.332Z,0
2022-10-17T03:51:43.057Z,0
2022-10-17T03:52:43.307Z,0
2022-10-17T03:53:43.054Z,0
2022-10-17T03:54:43.028Z,0
2022-10-17T03:55:43.533Z,0
2022-10-17T03:56:43.018Z,0
2022-10-17T03:57:47.890Z,0
2022-10-17T03:58:43.250Z,0
2022-10-17T03:59:42.455Z,0
2022-10-17T04:00:42.966Z,0
2022-10-17T04:01:43.529Z,0
2022-10-17T04:02:43.204Z,0
2022-10-17T04:03:42.937Z,0
2022-10-17T04:04:43.432Z,0
2022-10-17T04:05:43.554Z,0
2022-10-17T04:06:42.904Z,0
2022-10-17T04:07:43.153Z,0
2022-10-17T04:08:42.854Z,0
2022-10-17T04:09:43.359Z,0
2022-10-17T04:10:43.363Z,0
2022-10-17T04:11:43.346Z,0
2022-10-17T04:12:42.932Z,0
2022-10-17T04:13:43.079Z,0
2022-10-17T04:14:43.319Z,0
2022-10-17T04:15:43.563Z,0
2022-10-17T04:16:43.560Z,0
2022-10-17T04:17:48.604Z,0
2022-10-17T04:18:43.020Z,0
2022-10-17T04:19:43.024Z,0
2022-10-17T04:20:43.275Z,0
2022-10-17T04:21:44.086Z,0
2022-10-17T04:22:42.543Z,0
2022-10-17T04:23:43.483Z,0
2022-10-17T04:24:42.717Z,0
2022-10-17T04:25:45.803Z,0
2022-10-17T04:26:43.198Z,0
2022-10-17T04:27:43.197Z,0
2022-10-17T04:28:43.584Z,0
2022-10-17T04:29:42.935Z,0
2022-10-17T04:30:49.021Z,0
2022-10-17T04:31:43.170Z,0
2022-10-17T04:32:42.906Z,0
2022-10-17T04:33:42.892Z,0
2022-10-17T04:34:43.140Z,0
2022-10-17T04:35:42.871Z,0
2022-10-17T04:36:43.114Z,0
2022-10-17T04:37:43.501Z,0
2022-10-17T04:38:42.592Z,0
2022-10-17T04:39:43.078Z,0
2022-10-17T04:40:43.084Z,0
2022-10-17T04:41:43.333Z,0
2022-10-17T04:42:42.822Z,0
2022-10-17T04:43:44.424Z,0
2022-10-17T04:44:42.793Z,0
2022-10-17T04:45:43.297Z,0
2022-10-17T04:46:42.905Z,0
2022-10-17T04:47:43.366Z,0
2022-10-17T04:48:43.337Z,0
2022-10-17T04:49:44.057Z,0
2022-10-17T04:50:42.820Z,0
2022-10-17T04:51:42.807Z,0
2022-10-17T04:52:43.042Z,0
2022-10-17T04:53:43.412Z,0
2022-10-17T04:54:42.781Z,0
2022-10-17T04:55:42.765Z,0
2022-10-17T04:56:42.752Z,0
2022-10-17T04:57:43.258Z,0
2022-10-17T04:58:42.233Z,0
2022-10-17T04:59:42.986Z,0
2022-10-17T05:00:42.844Z,0
2022-10-17T05:01:42.735Z,0
2022-10-17T05:02:42.963Z,0
2022-10-17T05:03:43.289Z,0
2022-10-17T05:04:42.689Z,0
2022-10-17T05:05:42.930Z,0
2022-10-17T05:06:42.969Z,0
2022-10-17T05:07:42.670Z,0
2022-10-17T05:08:42.652Z,0
2022-10-17T05:09:43.302Z,0
2022-10-17T05:10:43.220Z,0
2022-10-17T05:11:42.407Z,0
2022-10-17T05:12:42.868Z,0
2022-10-17T05:13:42.621Z,0
2022-10-17T05:14:42.348Z,0
2022-10-17T05:15:42.584Z,0
2022-10-17T05:16:42.319Z,0
2022-10-17T05:17:43.086Z,0
2022-10-17T05:18:42.823Z,0
2022-10-17T05:19:42.814Z,0
2022-10-17T05:20:42.297Z,0
2022-10-17T05:21:42.791Z,0
2022-10-17T05:22:49.080Z,0
2022-10-17T05:23:43.027Z,0
2022-10-17T05:24:42.758Z,0
2022-10-17T05:25:43.249Z,0
2022-10-17T05:26:42.239Z,0
2022-10-17T05:27:43.007Z,0
2022-10-17T05:28:42.800Z,0
2022-10-17T05:29:42.207Z,0
2022-10-17T05:30:46.125Z,0
2022-10-17T05:31:42.722Z,0
2022-10-17T05:32:42.441Z,0
2022-10-17T05:33:42.680Z,0
2022-10-17T05:34:41.935Z,0
2022-10-17T05:35:41.898Z,5
2022-10-17T05:36:42.652Z,5
2022-10-17T05:37:42.393Z,5
2022-10-17T05:38:42.903Z,5
2022-10-17T05:39:42.891Z,5
2022-10-17T05:40:42.383Z,5
2022-10-17T05:41:43.060Z,5
2022-10-17T05:42:43.280Z,5
2022-10-17T05:43:41.831Z,5
2022-10-17T05:44:42.601Z,10
2022-10-17T05:45:42.323Z,10
2022-10-17T05:46:42.114Z,10
2022-10-17T05:47:42.527Z,10
2022-10-17T05:48:42.057Z,10
2022-10-17T05:49:59.188Z,10
2022-10-17T05:50:42.018Z,15
2022-10-17T05:51:42.408Z,15
2022-10-17T05:52:46.537Z,15
2022-10-17T05:53:42.260Z,15
2022-10-17T05:54:42.249Z,15
2022-10-17T05:55:42.003Z,15
2022-10-17T05:56:42.743Z,20
2022-10-17T05:57:42.866Z,20
2022-10-17T05:59:05.707Z,20
2022-10-17T05:59:42.201Z,20
2022-10-17T06:00:42.558Z,25
2022-10-17T06:01:42.569Z,25
2022-10-17T06:02:42.474Z,25
2022-10-17T06:03:41.920Z,25
2022-10-17T06:04:41.902Z,25
2022-10-17T06:05:41.889Z,30
2022-10-17T06:06:42.404Z,30
2022-10-17T06:07:42.504Z,30
2022-10-17T06:08:42.626Z,30
2022-10-17T06:09:42.954Z,35
2022-10-17T06:10:42.105Z,35
2022-10-17T06:11:42.619Z,35
2022-10-17T06:12:42.093Z,40
2022-10-17T06:13:42.709Z,40
2022-10-17T06:14:42.318Z,40
2022-10-17T06:15:41.799Z,40
2022-10-17T06:16:41.845Z,45
2022-10-17T06:17:42.298Z,45
2022-10-17T06:18:42.166Z,45
2022-10-17T06:19:42.285Z,50
2022-10-17T06:20:48.447Z,50
2022-10-17T06:21:41.485Z,50
2022-10-17T06:22:41.482Z,50
2022-10-17T06:23:42.245Z,55
2022-10-17T06:24:41.994Z,55
2022-10-17T06:25:41.969Z,55
2022-10-17T06:26:41.950Z,55
2022-10-17T06:27:42.578Z,60
2022-10-17T06:28:42.653Z,60
2022-10-17T06:29:42.596Z,60
2022-10-17T06:30:41.925Z,65
2022-10-17T06:31:41.663Z,65
2022-10-17T06:32:41.934Z,65
2022-10-17T06:33:42.165Z,65
2022-10-17T06:34:41.888Z,65
2022-10-17T06:35:41.627Z,70
2022-10-17T06:36:42.124Z,70
2022-10-17T06:37:46.771Z,70
2022-10-17T06:38:42.112Z,70
2022-10-17T06:39:41.856Z,70
2022-10-17T06:40:41.848Z,70
2022-10-17T06:41:41.846Z,70
2022-10-17T06:42:41.835Z,75
2022-10-17T06:43:41.806Z,75
2022-10-17T06:44:41.548Z,75
2022-10-17T06:45:42.445Z,75
2022-10-17T06:46:41.788Z,75
2022-10-17T06:47:42.600Z,75
2022-10-17T06:48:41.785Z,75
2022-10-17T06:49:41.768Z,80
2022-10-17T06:50:42.009Z,80
2022-10-17T06:51:41.757Z,80
2022-10-17T06:52:42.435Z,80
2022-10-17T06:53:41.980Z,80
2022-10-17T06:54:41.725Z,80
2022-10-17T06:55:41.717Z,80
2022-10-17T06:56:41.741Z,80
2022-10-17T06:57:41.859Z,80
2022-10-17T06:58:41.430Z,80
2022-10-17T06:59:41.429Z,85
2022-10-17T07:00:42.665Z,85
2022-10-17T07:01:47.154Z,85
2022-10-17T07:02:42.051Z,90
2022-10-17T07:03:41.639Z,90
2022-10-17T07:04:42.154Z,90
2022-10-17T07:05:41.383Z,95
2022-10-17T07:06:41.621Z,95
2022-10-17T07:07:49.690Z,95
2022-10-17T07:08:42.117Z,95
2022-10-17T07:09:41.354Z,95
2022-10-17T07:10:41.857Z,100
2022-10-17T07:11:41.839Z,100
2022-10-17T07:12:41.842Z,100
2022-10-17T07:13:47.425Z,105
2022-10-17T07:14:42.074Z,105
2022-10-17T07:15:41.813Z,105
2022-10-17T07:16:41.813Z,110
2022-10-17T07:17:42.478Z,110
2022-10-17T07:18:41.784Z,110
2022-10-17T07:19:41.531Z,110
2022-10-17T07:20:41.527Z,110
2022-10-17T07:21:46.720Z,110
2022-10-17T07:22:41.506Z,110
2022-10-17T07:23:40.985Z,110
2022-10-17T07:24:42.126Z,110
2022-10-17T07:25:47.185Z,105
2022-10-17T07:26:41.820Z,105
2022-10-17T07:27:41.263Z,105
2022-10-17T07:28:41.576Z,100
2022-10-17T07:29:41.716Z,100
2022-10-17T07:30:41.701Z,100
2022-10-17T07:31:41.966Z,100
2022-10-17T07:32:41.952Z,100
2022-10-17T07:33:42.381Z,100
2022-10-17T07:34:41.504Z,100
2022-10-17T07:35:41.672Z,100
2022-10-17T07:36:42.075Z,100
2022-10-17T07:37:41.790Z,100
2022-10-17T07:38:41.432Z,100
2022-10-17T07:39:41.132Z,100
2022-10-17T07:40:41.643Z,100
2022-10-17T07:41:41.629Z,100
2022-10-17T07:42:41.594Z,100
2022-10-17T07:43:41.117Z,100
2022-10-17T07:44:41.086Z,100
2022-10-17T07:45:40.833Z,95
2022-10-17T07:46:41.653Z,95
2022-10-17T07:47:41.880Z,95
2022-10-17T07:48:41.584Z,95
2022-10-17T07:49:41.977Z,95
2022-10-17T07:50:41.589Z,95
2022-10-17T07:51:41.573Z,95
2022-10-17T07:52:42.012Z,95
2022-10-17T07:53:41.803Z,90
2022-10-17T07:54:41.541Z,90
2022-10-17T07:55:41.562Z,85
2022-10-17T07:56:41.159Z,85
2022-10-17T07:57:41.777Z,85
2022-10-17T07:58:41.262Z,85
2022-10-17T07:59:41.516Z,90
2022-10-17T08:00:42.157Z,85
2022-10-17T08:01:41.267Z,85
2022-10-17T08:02:41.784Z,85
2022-10-17T08:03:41.517Z,85
2022-10-17T08:04:41.750Z,85
2022-10-17T08:05:41.904Z,90
2022-10-17T08:06:41.299Z,85
2022-10-17T08:07:41.206Z,85
2022-10-17T08:08:41.494Z,85
2022-10-17T08:09:41.206Z,85
2022-10-17T08:10:41.488Z,85
2022-10-17T08:11:41.421Z,80
2022-10-17T08:12:42.033Z,80
2022-10-17T08:13:41.161Z,80
2022-10-17T08:14:40.905Z,80
2022-10-17T08:15:41.850Z,80
2022-10-17T08:16:41.662Z,75
2022-10-17T08:17:41.399Z,75
2022-10-17T08:18:41.400Z,75
2022-10-17T08:19:41.386Z,75
2022-10-17T08:20:41.633Z,75
2022-10-17T08:21:41.767Z,75
2022-10-17T08:22:41.909Z,70
2022-10-17T08:23:41.615Z,75
2022-10-17T08:24:41.345Z,75
2022-10-17T08:25:41.651Z,75
2022-10-17T08:26:51.845Z,75
2022-10-17T08:27:41.067Z,70
2022-10-17T08:28:41.777Z,70
2022-10-17T08:29:41.329Z,75
2022-10-17T08:30:41.314Z,75
2022-10-17T08:31:41.329Z,75
2022-10-17T08:32:41.839Z,75
2022-10-17T08:33:40.814Z,75
2022-10-17T08:34:41.687Z,75
2022-10-17T08:35:41.274Z,75
2022-10-17T08:36:41.118Z,75
2022-10-17T08:37:42.296Z,75
2022-10-17T08:38:55.736Z,75
2022-10-17T08:39:41.247Z,75
2022-10-17T08:40:40.738Z,75
2022-10-17T08:41:40.735Z,75
2022-10-17T08:42:41.005Z,75
2022-10-17T08:43:44.299Z,75
2022-10-17T08:44:40.711Z,75
2022-10-17T08:45:41.474Z,75
2022-10-17T08:46:41.337Z,75
2022-10-17T08:47:41.875Z,75
2022-10-17T08:48:45.643Z,75
2022-10-17T08:49:41.197Z,75
2022-10-17T08:50:40.678Z,75
2022-10-17T08:51:40.918Z,75
2022-10-17T08:52:41.175Z,75
2022-10-17T08:53:41.578Z,75
2022-10-17T08:54:41.205Z,75
2022-10-17T08:55:47.747Z,75
2022-10-17T08:57:11.138Z,75
2022-10-17T08:57:42.079Z,75
2022-10-17T08:58:40.972Z,75
2022-10-17T08:59:40.656Z,75
2022-10-17T09:00:40.612Z,75
2022-10-17T09:01:41.128Z,75
2022-10-17T09:02:41.388Z,75
2022-10-17T09:03:41.235Z,75
2022-10-17T09:04:41.139Z,75
2022-10-17T09:05:41.094Z,75
2022-10-17T09:06:41.112Z,75
2022-10-17T09:07:41.651Z,75
2022-10-17T09:08:41.076Z,75
2022-10-17T09:09:41.565Z,75
2022-10-17T09:10:41.329Z,75
2022-10-17T09:11:40.818Z,75
2022-10-17T09:12:41.146Z,75
2022-10-17T09:13:40.529Z,75
2022-10-17T09:14:40.799Z,75
2022-10-17T09:15:40.796Z,75
2022-10-17T09:16:41.506Z,75
2022-10-17T09:17:41.358Z,75
2022-10-17T09:18:41.020Z,75
2022-10-17T09:19:41.031Z,75
2022-10-17T09:20:40.757Z,75
2022-10-17T09:21:41.022Z,75
2022-10-17T09:22:40.498Z,75
2022-10-17T09:23:46.286Z,75
2022-10-17T09:24:40.733Z,75
2022-10-17T09:25:41.384Z,75
2022-10-17T09:26:41.086Z,80
2022-10-17T09:27:41.595Z,80
2022-10-17T09:28:41.077Z,75
2022-10-17T09:29:50.874Z,75
2022-10-17T09:30:56.030Z,75
2022-10-17T09:31:40.214Z,75
2022-10-17T09:32:41.311Z,75
2022-10-17T09:34:02.711Z,75
2022-10-17T09:34:40.424Z,75
2022-10-17T09:35:40.435Z,75
2022-10-17T09:36:40.966Z,75
2022-10-17T09:37:40.672Z,75
2022-10-17T09:38:40.921Z,80
2022-10-17T09:39:40.425Z,80
2022-10-17T09:40:41.042Z,75
2022-10-17T09:41:55.161Z,80
2022-10-17T09:42:42.040Z,80
2022-10-17T09:43:41.506Z,80
2022-10-17T09:44:41.989Z,80
2022-10-17T09:45:41.487Z,80
2022-10-17T09:46:41.606Z,80
2022-10-17T09:47:40.727Z,80
2022-10-17T09:48:41.250Z,80
2022-10-17T09:49:41.219Z,80
2022-10-17T09:50:40.955Z,80
2022-10-17T09:51:41.249Z,80
2022-10-17T09:52:41.995Z,85
2022-10-17T09:53:41.436Z,85
2022-10-17T09:54:41.442Z,85
2022-10-17T09:55:42.107Z,85
2022-10-17T09:56:41.340Z,85
2022-10-17T09:57:41.806Z,85
2022-10-17T09:58:41.696Z,85
2022-10-17T09:59:41.178Z,85
2022-10-17T10:00:42.064Z,90
2022-10-17T10:01:41.434Z,90
2022-10-17T10:02:42.399Z,90
2022-10-17T10:03:41.398Z,85
2022-10-17T10:05:12.215Z,85
2022-10-17T10:05:41.142Z,85
2022-10-17T10:06:41.762Z,85
2022-10-17T10:07:41.397Z,90
2022-10-17T10:08:41.666Z,85
2022-10-17T10:09:46.414Z,85
2022-10-17T10:10:41.370Z,85
2022-10-17T10:11:40.872Z,85
2022-10-17T10:12:41.618Z,90
2022-10-17T10:13:41.841Z,90
2022-10-17T10:14:42.124Z,85
2022-10-17T10:15:41.435Z,85
2022-10-17T10:16:41.185Z,85
2022-10-17T10:17:40.895Z,85
2022-10-17T10:18:41.271Z,85
2022-10-17T10:19:41.343Z,85
2022-10-17T10:20:41.093Z,85
2022-10-17T10:21:48.886Z,85
2022-10-17T10:22:41.833Z,85
2022-10-17T10:23:41.087Z,85
2022-10-17T10:24:42.096Z,85
2022-10-17T10:25:41.354Z,85
2022-10-17T10:26:41.315Z,85
2022-10-17T10:27:42.578Z,85
2022-10-17T10:28:41.685Z,85
2022-10-17T10:29:41.690Z,85
2022-10-17T10:30:47.322Z,85
2022-10-17T10:31:41.361Z,85
2022-10-17T10:32:41.698Z,85
2022-10-17T10:33:50.973Z,85
2022-10-17T10:34:41.071Z,85
2022-10-17T10:35:41.302Z,85
2022-10-17T10:36:41.221Z,85
2022-10-17T10:37:41.837Z,85
2022-10-17T10:38:41.084Z,85
2022-10-17T10:39:41.549Z,85
2022-10-17T10:40:41.526Z,85
2022-10-17T10:41:41.101Z,85
2022-10-17T10:42:41.280Z,85
2022-10-17T10:43:41.382Z,85
2022-10-17T10:44:41.264Z,85
2022-10-17T10:45:58.730Z,85
2022-10-17T10:46:41.523Z,85
2022-10-17T10:47:41.719Z,85
2022-10-17T10:48:41.259Z,85
2022-10-17T10:49:41.011Z,85
2022-10-17T10:50:46.481Z,85
2022-10-17T10:51:42.045Z,85
2022-10-17T10:52:41.025Z,85
2022-10-17T10:53:44.966Z,85
2022-10-17T10:54:41.133Z,85
2022-10-17T10:55:40.989Z,85
2022-10-17T10:56:40.989Z,85
2022-10-17T10:57:41.315Z,80
2022-10-17T10:58:46.846Z,80
2022-10-17T10:59:40.978Z,80
2022-10-17T11:00:41.732Z,80
2022-10-17T11:01:41.596Z,80
2022-10-17T11:02:41.243Z,80
2022-10-17T11:04:41.500Z,85
2022-10-17T11:05:40.952Z,85
2022-10-17T11:06:40.694Z,85
2022-10-17T11:07:42.382Z,85
2022-10-17T11:08:41.203Z,85
2022-10-17T11:09:42.680Z,85
2022-10-17T11:10:40.702Z,85
2022-10-17T11:11:41.210Z,85
2022-10-17T11:12:41.218Z,85
2022-10-17T11:13:40.956Z,85
2022-10-17T11:14:40.963Z,85
2022-10-17T11:15:41.196Z,85
2022-10-17T11:16:41.182Z,85
2022-10-17T11:17:42.709Z,85
2022-10-17T11:18:41.439Z,85
2022-10-17T11:19:41.194Z,85
2022-10-17T11:20:41.262Z,85
2022-10-17T11:22:43.405Z,85
2022-10-17T11:23:41.106Z,85
2022-10-17T11:24:40.999Z,85
2022-10-17T11:25:40.909Z,85
2022-10-17T11:26:41.439Z,85
2022-10-17T11:27:40.930Z,85
2022-10-17T11:28:41.322Z,85
2022-10-17T11:29:41.419Z,85
2022-10-17T11:30:42.193Z,85
2022-10-17T11:31:41.177Z,85
2022-10-17T11:32:41.151Z,85
2022-10-17T11:33:41.533Z,85
2022-10-17T11:34:40.639Z,85
2022-10-17T11:35:40.642Z,85
2022-10-17T11:36:40.894Z,85
2022-10-17T11:37:45.054Z,85
2022-10-17T11:38:41.190Z,80
2022-10-17T11:39:41.380Z,85
2022-10-17T11:40:41.433Z,85
2022-10-17T11:41:41.151Z,80
2022-10-17T11:42:41.216Z,80
2022-10-17T11:43:40.873Z,80
2022-10-17T11:44:41.187Z,80
2022-10-17T11:45:40.874Z,80
2022-10-17T11:46:40.613Z,85
2022-10-17T11:47:41.380Z,80
2022-10-17T11:48:40.890Z,80
2022-10-17T11:49:53.535Z,80
2022-10-17T11:52:10.858Z,80
2022-10-17T11:52:59.884Z,80
2022-10-17T11:53:20.675Z,80
2022-10-17T11:54:20.759Z,80
2022-10-17T11:55:20.922Z,80
2022-10-17T11:56:20.401Z,85
2022-10-17T11:57:24.388Z,85
2022-10-17T11:58:20.698Z,80
2022-10-17T11:59:20.656Z,80
2022-10-17T12:00:20.660Z,80
2022-10-17T12:01:20.384Z,80
2022-10-17T12:02:20.396Z,80
2022-10-17T12:03:20.138Z,80
2022-10-17T12:04:21.022Z,80
2022-10-17T12:05:21.035Z,80
2022-10-17T12:06:20.377Z,80
2022-10-17T12:07:20.982Z,75
2022-10-17T12:08:20.384Z,75
2022-10-17T12:09:20.901Z,75
2022-10-17T12:10:19.867Z,75
2022-10-17T12:11:20.708Z,80
2022-10-17T12:12:20.909Z,80
2022-10-17T12:13:20.627Z,85
2022-10-17T12:14:20.368Z,85
2022-10-17T12:15:20.623Z,85
2022-10-17T12:16:24.805Z,85
2022-10-17T12:17:20.718Z,85
2022-10-17T12:18:21.258Z,85
2022-10-17T12:19:20.359Z,90
2022-10-17T12:20:21.089Z,90
2022-10-17T12:21:21.025Z,90
2022-10-17T12:22:20.358Z,90
2022-10-17T12:23:20.607Z,95
2022-10-17T12:24:25.828Z,95
2022-10-17T12:25:20.869Z,95
2022-10-17T12:26:20.094Z,95
2022-10-17T12:27:20.594Z,95
2022-10-17T12:28:20.598Z,95
2022-10-17T12:29:20.587Z,95
2022-10-17T12:30:20.614Z,95
2022-10-17T12:31:20.342Z,95
2022-10-17T12:32:20.582Z,95
2022-10-17T12:33:20.583Z,95
2022-10-17T12:34:20.595Z,95
2022-10-17T12:35:20.329Z,95
2022-10-17T12:36:20.580Z,100
2022-10-17T12:37:21.041Z,95
2022-10-17T12:38:20.330Z,95
2022-10-17T12:39:20.326Z,95
2022-10-17T12:40:20.568Z,100
2022-10-17T12:41:20.694Z,100
2022-10-17T12:42:20.607Z,100
2022-10-17T12:43:19.860Z,100
2022-10-17T12:44:21.330Z,100
2022-10-17T12:45:20.577Z,100
2022-10-17T12:46:20.309Z,105
2022-10-17T12:47:21.336Z,105
2022-10-17T12:48:20.547Z,105
2022-10-17T12:49:20.559Z,105
2022-10-17T12:50:20.301Z,110
2022-10-17T12:51:44.796Z,110
2022-10-17T12:52:20.290Z,110
2022-10-17T12:53:26.617Z,115
2022-10-17T12:54:20.034Z,115
2022-10-17T12:55:22.536Z,120
2022-10-17T12:56:20.287Z,120
2022-10-17T12:57:20.637Z,120
2022-10-17T12:58:20.809Z,125
2022-10-17T12:59:20.273Z,130
2022-10-17T13:00:20.787Z,135
2022-10-17T13:01:33.941Z,135
2022-10-17T13:02:20.562Z,140
2022-10-17T13:03:20.529Z,145
2022-10-17T13:04:20.515Z,150
2022-10-17T13:05:20.024Z,150
2022-10-17T13:06:20.539Z,160
2022-10-17T13:07:20.779Z,160
2022-10-17T13:08:20.508Z,160
2022-10-17T13:09:20.917Z,165
2022-10-17T13:10:24.193Z,165
2022-10-17T13:11:20.255Z,170
2022-10-17T13:12:19.986Z,170
2022-10-17T13:13:20.787Z,170
2022-10-17T13:14:21.704Z,175
2022-10-17T13:15:20.350Z,180
2022-10-17T13:16:21.093Z,180
2022-10-17T13:17:21.217Z,185
2022-10-17T13:18:21.259Z,185
2022-10-17T13:19:21.040Z,185
2022-10-17T13:20:27.462Z,190
2022-10-17T13:21:20.522Z,185
2022-10-17T13:22:20.774Z,185
2022-10-17T13:23:20.783Z,180
2022-10-17T13:24:21.079Z,180
2022-10-17T13:25:21.412Z,180
2022-10-17T13:26:21.050Z,175
2022-10-17T13:27:21.321Z,170
2022-10-17T13:28:20.773Z,165
2022-10-17T13:29:21.100Z,165
2022-10-17T13:30:21.254Z,155
2022-10-17T13:31:20.765Z,150
2022-10-17T13:32:21.879Z,145
2022-10-17T13:33:20.766Z,140
2022-10-17T13:34:20.751Z,140
2022-10-17T13:35:24.597Z,130
2022-10-17T13:36:21.354Z,130
2022-10-17T13:37:21.065Z,125
2022-10-17T13:38:21.918Z,120
2022-10-17T13:39:55.956Z,115
2022-10-17T13:41:37.255Z,110
2022-10-17T13:41:47.356Z,110
2022-10-17T13:42:46.837Z,105
2022-10-17T13:43:46.826Z,110
2022-10-17T13:44:50.602Z,105
2022-10-17T13:45:47.334Z,105
2022-10-17T13:46:48.316Z,100
2022-10-17T13:47:46.573Z,100
2022-10-17T13:48:47.063Z,100
2022-10-17T13:49:48.072Z,100
2022-10-17T13:50:54.026Z,95
2022-10-17T13:51:46.828Z,95
2022-10-17T13:52:46.559Z,95
2022-10-17T13:53:47.312Z,95
2022-10-17T13:54:46.919Z,95
2022-10-17T13:55:47.002Z,95
2022-10-17T13:56:47.656Z,95
2022-10-17T13:57:47.085Z,95
2022-10-17T13:58:46.535Z,100
2022-10-17T13:59:46.807Z,100
2022-10-17T14:00:47.362Z,105
2022-10-17T14:01:47.158Z,105
2022-10-17T14:02:47.518Z,110
2022-10-17T14:04:23.953Z,110
2022-10-17T14:05:29.509Z,110
2022-10-17T14:05:46.663Z,110
2022-10-17T14:06:53.347Z,115
2022-10-17T14:08:28.178Z,110
2022-10-17T14:08:46.770Z,110
2022-10-17T14:09:47.292Z,110
2022-10-17T14:10:46.558Z,110
2022-10-17T14:11:46.776Z,110
2022-10-17T14:12:51.635Z,105
2022-10-17T14:13:47.078Z,105
2022-10-17T14:15:18.318Z,95
2022-10-17T14:15:47.024Z,100
2022-10-17T14:16:47.270Z,95
2022-10-17T14:17:47.266Z,90
2022-10-17T14:18:47.019Z,90
2022-10-17T14:20:00.226Z,85
2022-10-17T14:21:49.823Z,85
2022-10-17T14:23:29.396Z,80
2022-10-17T14:23:59.328Z,80
2022-10-17T14:25:04.882Z,80
2022-10-17T14:25:59.573Z,75
2022-10-17T14:26:59.326Z,75
2022-10-17T14:27:59.677Z,75
2022-10-17T14:28:59.984Z,75
2022-10-17T14:29:59.570Z,75
2022-10-17T14:31:07.066Z,75
2022-10-17T14:31:59.562Z,70
2022-10-17T14:32:59.594Z,70
2022-10-17T14:34:00.647Z,70
2022-10-17T14:35:41.789Z,70
2022-10-17T14:35:59.752Z,70
2022-10-17T14:36:59.036Z,70
2022-10-17T14:37:59.567Z,65
2022-10-17T14:38:59.036Z,65
2022-10-17T14:39:59.799Z,65
2022-10-17T14:41:44.413Z,65
2022-10-17T14:42:04.475Z,65
2022-10-17T14:42:59.799Z,65
2022-10-17T14:43:59.646Z,65